Aérodrome :
LOGIN :

S'inscrire | Disclaimer

   EN    FR    IT 

 










Légende :    VFR   VFR Marginal   IFR   IFR Intensif   IFR Très Intensif
Visi : 
Plafond : 
>= 8 km
>= 3000ft
5 à 8 km
1000 à 3000 ft
1500m à 5 km
500 à 1000 ft
800 à 1500m
200 à 500 ft
< 800m
< 200 ft
Symboles :   Orages  Brouillard  Fortes neiges  Fortes précipitations  Vent > 20 kt
SIGMETs :   Divers  Orages  Givrage  Turbulence  Onde Orograph.  Cendres Volcan.






- Altitude de l'aérodrome : 63 ft
- Code IATA : BZM


EHWO - Woensdrecht Airbase

DERNIER METAR :
  • 281625Z AUTO 24014KT 210V270 9999 OVC140 06/00 Q0998 BLU

METARs EXPIRÉS :
  • 281555Z AUTO 24015KT 210V270 9999 FEW044 SCT076 BKN082 06/01 Q0998 BLU
  • 281525Z AUTO 25018KT 220V280 9999 FEW027 SCT032 BKN039 06/01 Q0998 BLU
  • 281455Z AUTO 25020KT 220V280 9999 FEW027 BKN035 BKN040 06/01 Q0997 BLU
  • 281431Z AUTO 25021KT 220V280 9999 SCT029 BKN170 06/01 Q0997 BLU
  • 281355Z AUTO 26021KT 230V290 9999 FEW026 SCT032 BKN050 06/01 Q0997 BLU 26015G25KT 9999 SCT025 BKN040 TEMPO 26020G33KT SCT018CB BKN025

TAF TAF EHWO
Valide du 28 à 10h jusqu'au 28 à 22h UTC


280936Z 2810/2822 24015G25KT 9999 SCT020 BKN030
TEMPO 2810/2811 25020G35KT 4000 SHRA FEW010 SCT015CB BKN020
TEMPO 2811/2818 25020G35KT
PROB30
TEMPO 2811/2818 FEW018CB BKN020
TEMPO 2818/2822 FEW018CB BKN020



MET'MAP, la Météo Aéronautique d'un coup d'oeil ! - Copyright ORBIFLY Décembre 2007 - Disclaimer

ORBIFLY MET'MAP TEAM :

Programmation & Développement : Alexandra Zaïnal
Sur une idée originale de : Baudouin d'Aumeries
Assistance à la programmation : Marc-Olivier Méhu
Soutien technique & logistique : Manuel Goepfert

Contact : metmap@orbifly.com




SOURCES & CREDITS :

   NOAA